sensor_id;sensor_type;location;lat;lon;timestamp;pressure;altitude;pressure_sealevel;temperature;humidity
70930;BME280;58588;48.102;19.682;2022-11-23T00:01:32;98203.13;;;4.58;100.00
70930;BME280;58588;48.102;19.682;2022-11-23T00:04:34;98192.97;;;4.53;100.00
70930;BME280;58588;48.102;19.682;2022-11-23T00:07:38;98195.94;;;4.59;100.00
70930;BME280;58588;48.102;19.682;2022-11-23T00:10:40;98198.25;;;4.62;100.00
70930;BME280;58588;48.102;19.682;2022-11-23T00:13:42;98191.53;;;4.66;100.00
70930;BME280;58588;48.102;19.682;2022-11-23T00:16:44;98194.50;;;4.71;100.00
70930;BME280;58588;48.102;19.682;2022-11-23T00:19:46;98183.44;;;4.59;100.00
70930;BME280;58588;48.102;19.682;2022-11-23T00:22:49;98183.97;;;4.54;100.00
70930;BME280;58588;48.102;19.682;2022-11-23T00:25:51;98191.63;;;4.57;100.00
70930;BME280;58588;48.102;19.682;2022-11-23T00:28:53;98189.97;;;4.56;100.00
70930;BME280;58588;48.102;19.682;2022-11-23T00:31:55;98182.94;;;4.55;100.00
70930;BME280;58588;48.102;19.682;2022-11-23T00:34:57;98177.88;;;4.46;100.00
70930;BME280;58588;48.102;19.682;2022-11-23T00:38:01;98175.50;;;4.51;100.00
70930;BME280;58588;48.102;19.682;2022-11-23T00:41:05;98169.16;;;4.52;100.00
70930;BME280;58588;48.102;19.682;2022-11-23T00:44:07;98173.66;;;4.51;100.00
70930;BME280;58588;48.102;19.682;2022-11-23T00:47:09;98175.31;;;4.52;100.00
70930;BME280;58588;48.102;19.682;2022-11-23T00:50:11;98177.41;;;4.42;100.00
70930;BME280;58588;48.102;19.682;2022-11-23T00:53:15;98164.53;;;4.46;100.00
70930;BME280;58588;48.102;19.682;2022-11-23T00:56:17;98171.53;;;4.47;100.00
70930;BME280;58588;48.102;19.682;2022-11-23T00:59:20;98169.34;;;4.50;100.00
70930;BME280;58588;48.102;19.682;2022-11-23T01:02:22;98166.94;;;4.55;100.00
70930;BME280;58588;48.102;19.682;2022-11-23T01:05:24;98161.72;;;4.62;100.00
70930;BME280;58588;48.102;19.682;2022-11-23T01:08:28;98162.00;;;4.67;100.00
70930;BME280;58588;48.102;19.682;2022-11-23T01:11:30;98163.91;;;4.59;100.00
70930;BME280;58588;48.102;19.682;2022-11-23T01:14:33;98154.47;;;4.71;100.00
70930;BME280;58588;48.102;19.682;2022-11-23T01:17:35;98158.25;;;4.76;100.00
70930;BME280;58588;48.102;19.682;2022-11-23T01:20:37;98153.09;;;4.75;100.00
70930;BME280;58588;48.102;19.682;2022-11-23T01:23:40;98159.72;;;4.79;100.00
70930;BME280;58588;48.102;19.682;2022-11-23T01:26:42;98153.44;;;4.72;100.00
70930;BME280;58588;48.102;19.682;2022-11-23T01:29:50;98145.09;;;4.90;100.00
70930;BME280;58588;48.102;19.682;2022-11-23T01:32:52;98150.16;;;4.84;100.00
70930;BME280;58588;48.102;19.682;2022-11-23T01:35:54;98148.41;;;4.92;100.00
70930;BME280;58588;48.102;19.682;2022-11-23T01:38:58;98138.47;;;5.00;100.00
70930;BME280;58588;48.102;19.682;2022-11-23T01:42:00;98139.22;;;4.94;100.00
70930;BME280;58588;48.102;19.682;2022-11-23T01:45:34;98130.19;;;4.95;100.00
70930;BME280;58588;48.102;19.682;2022-11-23T01:48:39;98125.38;;;4.76;100.00
70930;BME280;58588;48.102;19.682;2022-11-23T01:51:45;98117.38;;;4.76;100.00
70930;BME280;58588;48.102;19.682;2022-11-23T01:54:52;98113.06;;;4.90;100.00
70930;BME280;58588;48.102;19.682;2022-11-23T01:57:55;98114.63;;;4.84;100.00
70930;BME280;58588;48.102;19.682;2022-11-23T02:00:57;98121.44;;;4.87;100.00
70930;BME280;58588;48.102;19.682;2022-11-23T02:04:00;98113.69;;;4.77;100.00
70930;BME280;58588;48.102;19.682;2022-11-23T02:07:03;98115.44;;;4.84;100.00
70930;BME280;58588;48.102;19.682;2022-11-23T02:10:09;98107.53;;;4.91;100.00
70930;BME280;58588;48.102;19.682;2022-11-23T02:13:12;98112.03;;;4.91;100.00
70930;BME280;58588;48.102;19.682;2022-11-23T02:16:15;98105.78;;;4.98;100.00
70930;BME280;58588;48.102;19.682;2022-11-23T02:19:30;98095.19;;;5.05;100.00
70930;BME280;58588;48.102;19.682;2022-11-23T02:22:39;98099.72;;;5.04;100.00
70930;BME280;58588;48.102;19.682;2022-11-23T02:26:01;98096.84;;;4.91;100.00
70930;BME280;58588;48.102;19.682;2022-11-23T02:29:07;98090.97;;;4.96;100.00
70930;BME280;58588;48.102;19.682;2022-11-23T02:32:10;98087.38;;;4.89;100.00
70930;BME280;58588;48.102;19.682;2022-11-23T02:35:12;98079.91;;;4.99;100.00
70930;BME280;58588;48.102;19.682;2022-11-23T02:38:15;98069.25;;;4.99;100.00
70930;BME280;58588;48.102;19.682;2022-11-23T02:41:20;98073.16;;;5.03;100.00
70930;BME280;58588;48.102;19.682;2022-11-23T02:44:33;98084.69;;;4.89;100.00
70930;BME280;58588;48.102;19.682;2022-11-23T02:47:38;98081.84;;;4.90;100.00
70930;BME280;58588;48.102;19.682;2022-11-23T02:50:40;98083.13;;;4.94;100.00
70930;BME280;58588;48.102;19.682;2022-11-23T02:53:42;98078.72;;;5.01;100.00
70930;BME280;58588;48.102;19.682;2022-11-23T02:56:46;98075.50;;;5.06;100.00
70930;BME280;58588;48.102;19.682;2022-11-23T02:59:48;98073.09;;;5.11;100.00
70930;BME280;58588;48.102;19.682;2022-11-23T03:02:50;98069.50;;;5.04;100.00
70930;BME280;58588;48.102;19.682;2022-11-23T03:05:52;98063.69;;;5.00;100.00
70930;BME280;58588;48.102;19.682;2022-11-23T03:08:54;98068.97;;;4.94;100.00
70930;BME280;58588;48.102;19.682;2022-11-23T03:12:00;98064.53;;;5.01;100.00
70930;BME280;58588;48.102;19.682;2022-11-23T03:15:02;98072.25;;;4.96;100.00
70930;BME280;58588;48.102;19.682;2022-11-23T03:18:05;98065.53;;;5.00;100.00
70930;BME280;58588;48.102;19.682;2022-11-23T03:21:07;98065.53;;;5.00;100.00
70930;BME280;58588;48.102;19.682;2022-11-23T03:24:09;98060.28;;;5.06;100.00
70930;BME280;58588;48.102;19.682;2022-11-23T03:27:12;98056.25;;;5.10;100.00
70930;BME280;58588;48.102;19.682;2022-11-23T03:30:14;98055.31;;;5.03;100.00
70930;BME280;58588;48.102;19.682;2022-11-23T03:33:17;98056.06;;;4.97;100.00
70930;BME280;58588;48.102;19.682;2022-11-23T03:36:19;98052.91;;;5.08;100.00
70930;BME280;58588;48.102;19.682;2022-11-23T03:39:21;98056.59;;;5.07;100.00
70930;BME280;58588;48.102;19.682;2022-11-23T03:42:24;98054.19;;;5.13;100.00
70930;BME280;58588;48.102;19.682;2022-11-23T03:45:26;98059.63;;;5.19;100.00
70930;BME280;58588;48.102;19.682;2022-11-23T03:48:28;98055.66;;;5.15;100.00
70930;BME280;58588;48.102;19.682;2022-11-23T03:51:30;98063.66;;;5.15;100.00
70930;BME280;58588;48.102;19.682;2022-11-23T03:54:32;98063.59;;;5.08;100.00
70930;BME280;58588;48.102;19.682;2022-11-23T03:57:35;98050.81;;;5.04;100.00
70930;BME280;58588;48.102;19.682;2022-11-23T04:00:37;98064.63;;;4.93;100.00
70930;BME280;58588;48.102;19.682;2022-11-23T04:03:39;98059.75;;;4.96;100.00
70930;BME280;58588;48.102;19.682;2022-11-23T04:06:41;98060.41;;;4.98;100.00
70930;BME280;58588;48.102;19.682;2022-11-23T04:09:43;98070.50;;;5.03;100.00
70930;BME280;58588;48.102;19.682;2022-11-23T04:12:50;98073.00;;;4.90;100.00
70930;BME280;58588;48.102;19.682;2022-11-23T04:15:53;98068.50;;;4.90;100.00
70930;BME280;58588;48.102;19.682;2022-11-23T04:18:54;98077.03;;;4.86;100.00
70930;BME280;58588;48.102;19.682;2022-11-23T04:21:57;98077.44;;;4.82;100.00
70930;BME280;58588;48.102;19.682;2022-11-23T04:24:59;98077.91;;;4.86;100.00
70930;BME280;58588;48.102;19.682;2022-11-23T04:28:02;98089.94;;;4.82;100.00
70930;BME280;58588;48.102;19.682;2022-11-23T04:31:04;98089.31;;;4.80;100.00
70930;BME280;58588;48.102;19.682;2022-11-23T04:34:06;98093.34;;;4.76;100.00
70930;BME280;58588;48.102;19.682;2022-11-23T04:37:08;98092.00;;;4.80;100.00
70930;BME280;58588;48.102;19.682;2022-11-23T04:40:11;98097.13;;;4.81;100.00
70930;BME280;58588;48.102;19.682;2022-11-23T04:43:14;98089.94;;;4.67;100.00
70930;BME280;58588;48.102;19.682;2022-11-23T04:46:17;98095.56;;;4.72;100.00
70930;BME280;58588;48.102;19.682;2022-11-23T04:49:19;98091.13;;;4.65;100.00
70930;BME280;58588;48.102;19.682;2022-11-23T04:52:21;98099.88;;;4.73;100.00
70930;BME280;58588;48.102;19.682;2022-11-23T04:55:23;98107.97;;;4.65;100.00
70930;BME280;58588;48.102;19.682;2022-11-23T04:58:26;98105.41;;;4.57;100.00
70930;BME280;58588;48.102;19.682;2022-11-23T05:01:28;98104.19;;;4.60;100.00
70930;BME280;58588;48.102;19.682;2022-11-23T05:04:30;98104.81;;;4.47;100.00
70930;BME280;58588;48.102;19.682;2022-11-23T05:07:33;98105.56;;;4.55;100.00
70930;BME280;58588;48.102;19.682;2022-11-23T05:10:36;98110.34;;;4.45;100.00
70930;BME280;58588;48.102;19.682;2022-11-23T05:13:39;98103.63;;;4.49;100.00
70930;BME280;58588;48.102;19.682;2022-11-23T05:16:41;98101.97;;;4.48;100.00
70930;BME280;58588;48.102;19.682;2022-11-23T05:19:43;98108.53;;;4.61;100.00
70930;BME280;58588;48.102;19.682;2022-11-23T05:22:45;98106.50;;;4.63;100.00
70930;BME280;58588;48.102;19.682;2022-11-23T05:25:47;98114.44;;;4.56;100.00
70930;BME280;58588;48.102;19.682;2022-11-23T05:28:51;98109.97;;;4.48;100.00
70930;BME280;58588;48.102;19.682;2022-11-23T05:31:53;98109.25;;;4.54;100.00
70930;BME280;58588;48.102;19.682;2022-11-23T05:34:55;98110.75;;;4.57;100.00
70930;BME280;58588;48.102;19.682;2022-11-23T05:37:57;98103.28;;;4.52;100.00
70930;BME280;58588;48.102;19.682;2022-11-23T05:41:00;98112.38;;;4.58;100.00
70930;BME280;58588;48.102;19.682;2022-11-23T05:44:03;98111.56;;;4.57;100.00
70930;BME280;58588;48.102;19.682;2022-11-23T05:47:05;98107.06;;;4.58;100.00
70930;BME280;58588;48.102;19.682;2022-11-23T05:50:08;98115.78;;;4.52;100.00
70930;BME280;58588;48.102;19.682;2022-11-23T05:53:10;98113.03;;;4.60;100.00
70930;BME280;58588;48.102;19.682;2022-11-23T05:56:12;98115.31;;;4.48;100.00
70930;BME280;58588;48.102;19.682;2022-11-23T05:59:15;98119.63;;;4.49;100.00
70930;BME280;58588;48.102;19.682;2022-11-23T06:02:17;98118.81;;;4.49;100.00
70930;BME280;58588;48.102;19.682;2022-11-23T06:05:19;98111.53;;;4.43;100.00
70930;BME280;58588;48.102;19.682;2022-11-23T06:08:21;98119.38;;;4.44;100.00
70930;BME280;58588;48.102;19.682;2022-11-23T06:11:23;98119.91;;;4.40;100.00
70930;BME280;58588;48.102;19.682;2022-11-23T06:14:27;98119.81;;;4.48;100.00
70930;BME280;58588;48.102;19.682;2022-11-23T06:17:29;98120.59;;;4.56;100.00
70930;BME280;58588;48.102;19.682;2022-11-23T06:20:32;98127.28;;;4.67;100.00
70930;BME280;58588;48.102;19.682;2022-11-23T06:23:34;98115.59;;;4.53;100.00
70930;BME280;58588;48.102;19.682;2022-11-23T06:26:36;98123.16;;;4.50;100.00
70930;BME280;58588;48.102;19.682;2022-11-23T06:29:39;98122.97;;;4.51;100.00
70930;BME280;58588;48.102;19.682;2022-11-23T06:32:41;98122.97;;;4.51;100.00
70930;BME280;58588;48.102;19.682;2022-11-23T06:35:51;98142.19;;;4.62;100.00
70930;BME280;58588;48.102;19.682;2022-11-23T06:38:53;98136.25;;;4.74;100.00
70930;BME280;58588;48.102;19.682;2022-11-23T06:41:55;98135.97;;;4.69;100.00
70930;BME280;58588;48.102;19.682;2022-11-23T06:44:58;98119.84;;;4.63;100.00
70930;BME280;58588;48.102;19.682;2022-11-23T06:48:00;98122.09;;;4.74;100.00
70930;BME280;58588;48.102;19.682;2022-11-23T06:51:02;98125.44;;;4.68;100.00
70930;BME280;58588;48.102;19.682;2022-11-23T06:54:05;98127.69;;;4.64;100.00
70930;BME280;58588;48.102;19.682;2022-11-23T06:57:07;98126.09;;;4.55;100.00
70930;BME280;58588;48.102;19.682;2022-11-23T07:00:12;98121.47;;;4.49;100.00
70930;BME280;58588;48.102;19.682;2022-11-23T07:03:18;98122.28;;;4.49;100.00
70930;BME280;58588;48.102;19.682;2022-11-23T07:06:20;98128.94;;;4.53;100.00
70930;BME280;58588;48.102;19.682;2022-11-23T07:09:22;98136.50;;;4.65;100.00
70930;BME280;58588;48.102;19.682;2022-11-23T07:12:24;98129.22;;;4.73;100.00
70930;BME280;58588;48.102;19.682;2022-11-23T07:15:28;98137.53;;;4.64;100.00
70930;BME280;58588;48.102;19.682;2022-11-23T07:18:30;98135.69;;;4.64;100.00
70930;BME280;58588;48.102;19.682;2022-11-23T07:21:32;98143.59;;;4.72;100.00
70930;BME280;58588;48.102;19.682;2022-11-23T07:24:34;98144.63;;;4.71;100.00
70930;BME280;58588;48.102;19.682;2022-11-23T07:27:36;98148.97;;;4.87;100.00
70930;BME280;58588;48.102;19.682;2022-11-23T07:30:40;98141.13;;;4.86;100.00
70930;BME280;58588;48.102;19.682;2022-11-23T07:33:43;98158.53;;;4.81;100.00
70930;BME280;58588;48.102;19.682;2022-11-23T07:36:45;98148.88;;;4.80;100.00
70930;BME280;58588;48.102;19.682;2022-11-23T07:39:47;98158.34;;;4.83;100.00
70930;BME280;58588;48.102;19.682;2022-11-23T07:42:52;98163.06;;;4.96;100.00
70930;BME280;58588;48.102;19.682;2022-11-23T07:45:55;98165.47;;;5.05;100.00
70930;BME280;58588;48.102;19.682;2022-11-23T07:48:57;98157.72;;;4.96;100.00
70930;BME280;58588;48.102;19.682;2022-11-23T07:52:01;98156.97;;;5.02;100.00
70930;BME280;58588;48.102;19.682;2022-11-23T07:55:04;98152.66;;;5.01;100.00
70930;BME280;58588;48.102;19.682;2022-11-23T07:58:08;98150.09;;;4.93;100.00
70930;BME280;58588;48.102;19.682;2022-11-23T08:01:14;98147.69;;;5.13;100.00
70930;BME280;58588;48.102;19.682;2022-11-23T08:04:18;98149.25;;;5.22;100.00
70930;BME280;58588;48.102;19.682;2022-11-23T08:07:20;98153.84;;;5.43;100.00
70930;BME280;58588;48.102;19.682;2022-11-23T08:10:22;98140.44;;;5.57;100.00
70930;BME280;58588;48.102;19.682;2022-11-23T08:13:24;98147.34;;;5.67;100.00
70930;BME280;58588;48.102;19.682;2022-11-23T08:16:27;98152.22;;;5.63;100.00
70930;BME280;58588;48.102;19.682;2022-11-23T08:19:30;98143.38;;;5.77;100.00
70930;BME280;58588;48.102;19.682;2022-11-23T08:22:32;98150.25;;;5.86;100.00
70930;BME280;58588;48.102;19.682;2022-11-23T08:25:34;98164.06;;;5.54;100.00
70930;BME280;58588;48.102;19.682;2022-11-23T08:28:36;98147.53;;;5.65;100.00
70930;BME280;58588;48.102;19.682;2022-11-23T08:31:40;98147.38;;;5.52;100.00
70930;BME280;58588;48.102;19.682;2022-11-23T08:34:43;98140.16;;;5.67;100.00
70930;BME280;58588;48.102;19.682;2022-11-23T08:37:45;98134.53;;;5.77;100.00
70930;BME280;58588;48.102;19.682;2022-11-23T08:40:47;98142.59;;;5.83;100.00
70930;BME280;58588;48.102;19.682;2022-11-23T08:43:49;98128.25;;;5.70;100.00
70930;BME280;58588;48.102;19.682;2022-11-23T08:46:53;98139.44;;;5.58;100.00
70930;BME280;58588;48.102;19.682;2022-11-23T08:49:55;98132.81;;;5.40;100.00
70930;BME280;58588;48.102;19.682;2022-11-23T08:52:58;98131.59;;;5.57;100.00
70930;BME280;58588;48.102;19.682;2022-11-23T08:56:01;98140.63;;;5.56;100.00
70930;BME280;58588;48.102;19.682;2022-11-23T08:59:03;98143.28;;;5.71;100.00
70930;BME280;58588;48.102;19.682;2022-11-23T09:02:07;98136.03;;;5.64;100.00
70930;BME280;58588;48.102;19.682;2022-11-23T09:05:10;98141.50;;;5.78;100.00
70930;BME280;58588;48.102;19.682;2022-11-23T09:08:12;98151.38;;;5.77;100.00
70930;BME280;58588;48.102;19.682;2022-11-23T09:11:16;98146.22;;;5.76;100.00
70930;BME280;58588;48.102;19.682;2022-11-23T09:14:18;98148.38;;;5.87;100.00
70930;BME280;58588;48.102;19.682;2022-11-23T09:17:22;98151.53;;;5.90;100.00
70930;BME280;58588;48.102;19.682;2022-11-23T09:20:24;98148.78;;;5.84;100.00
70930;BME280;58588;48.102;19.682;2022-11-23T09:23:26;98133.59;;;5.70;100.00
70930;BME280;58588;48.102;19.682;2022-11-23T09:26:28;98132.69;;;5.62;100.00
70930;BME280;58588;48.102;19.682;2022-11-23T09:29:33;98141.19;;;5.87;100.00
70930;BME280;58588;48.102;19.682;2022-11-23T09:32:36;98139.72;;;6.00;100.00
70930;BME280;58588;48.102;19.682;2022-11-23T09:35:39;98149.16;;;5.96;100.00
70930;BME280;58588;48.102;19.682;2022-11-23T09:38:41;98145.72;;;6.02;100.00
70930;BME280;58588;48.102;19.682;2022-11-23T09:42:07;98132.13;;;6.03;100.00
70930;BME280;58588;48.102;19.682;2022-11-23T09:45:18;98128.41;;;6.19;100.00
70930;BME280;58588;48.102;19.682;2022-11-23T09:48:30;98126.81;;;6.25;100.00
70930;BME280;58588;48.102;19.682;2022-11-23T09:51:39;98130.34;;;6.32;100.00
70930;BME280;58588;48.102;19.682;2022-11-23T09:54:43;98120.34;;;6.40;100.00
70930;BME280;58588;48.102;19.682;2022-11-23T09:57:46;98114.03;;;6.48;100.00
70930;BME280;58588;48.102;19.682;2022-11-23T10:00:54;98111.72;;;6.45;100.00
70930;BME280;58588;48.102;19.682;2022-11-23T10:04:02;98115.47;;;6.51;100.00
70930;BME280;58588;48.102;19.682;2022-11-23T10:07:12;98113.06;;;6.56;100.00
70930;BME280;58588;48.102;19.682;2022-11-23T10:10:33;98107.91;;;6.54;100.00
70930;BME280;58588;48.102;19.682;2022-11-23T10:13:42;98099.16;;;6.46;100.00
70930;BME280;58588;48.102;19.682;2022-11-23T10:16:51;98092.75;;;6.40;100.00
70930;BME280;58588;48.102;19.682;2022-11-23T10:20:14;98100.25;;;6.51;100.00
70930;BME280;58588;48.102;19.682;2022-11-23T10:23:29;98082.91;;;6.75;100.00
70930;BME280;58588;48.102;19.682;2022-11-23T10:26:37;98085.63;;;6.82;100.00
70930;BME280;58588;48.102;19.682;2022-11-23T10:29:41;98082.94;;;6.82;100.00
70930;BME280;58588;48.102;19.682;2022-11-23T10:32:46;98089.06;;;7.04;100.00
70930;BME280;58588;48.102;19.682;2022-11-23T10:35:52;98095.59;;;6.94;100.00
70930;BME280;58588;48.102;19.682;2022-11-23T10:38:57;98093.13;;;6.93;100.00
70930;BME280;58588;48.102;19.682;2022-11-23T10:42:03;98097.09;;;6.69;100.00
70930;BME280;58588;48.102;19.682;2022-11-23T10:45:17;98107.47;;;6.79;100.00
70930;BME280;58588;48.102;19.682;2022-11-23T10:48:33;98101.28;;;6.78;100.00
70930;BME280;58588;48.102;19.682;2022-11-23T10:51:36;98099.44;;;6.79;100.00
70930;BME280;58588;48.102;19.682;2022-11-23T10:54:47;98096.13;;;6.83;100.00
70930;BME280;58588;48.102;19.682;2022-11-23T10:57:51;98102.34;;;6.84;100.00
70930;BME280;58588;48.102;19.682;2022-11-23T11:01:00;98105.97;;;6.76;100.00
70930;BME280;58588;48.102;19.682;2022-11-23T11:04:02;98100.38;;;6.71;100.00
70930;BME280;58588;48.102;19.682;2022-11-23T11:07:27;98098.16;;;6.75;100.00
70930;BME280;58588;48.102;19.682;2022-11-23T11:10:37;98103.31;;;6.76;100.00
70930;BME280;58588;48.102;19.682;2022-11-23T11:13:41;98102.28;;;6.77;100.00
70930;BME280;58588;48.102;19.682;2022-11-23T11:16:46;98100.00;;;6.74;100.00
70930;BME280;58588;48.102;19.682;2022-11-23T11:19:49;98105.13;;;6.69;100.00
70930;BME280;58588;48.102;19.682;2022-11-23T11:22:53;98098.22;;;6.88;100.00
70930;BME280;58588;48.102;19.682;2022-11-23T11:26:08;98092.16;;;6.73;100.00
70930;BME280;58588;48.102;19.682;2022-11-23T11:29:26;98092.38;;;6.43;100.00
70930;BME280;58588;48.102;19.682;2022-11-23T11:32:37;98091.03;;;6.32;100.00
70930;BME280;58588;48.102;19.682;2022-11-23T11:35:46;98096.84;;;6.36;100.00
70930;BME280;58588;48.102;19.682;2022-11-23T11:38:52;98084.63;;;6.55;100.00
70930;BME280;58588;48.102;19.682;2022-11-23T11:41:59;98090.41;;;6.58;100.00
70930;BME280;58588;48.102;19.682;2022-11-23T11:45:10;98093.75;;;6.60;100.00
70930;BME280;58588;48.102;19.682;2022-11-23T11:48:19;98085.53;;;6.68;100.00
70930;BME280;58588;48.102;19.682;2022-11-23T11:51:28;98072.66;;;6.79;100.00
70930;BME280;58588;48.102;19.682;2022-11-23T11:54:38;98074.53;;;6.85;100.00
70930;BME280;58588;48.102;19.682;2022-11-23T11:57:48;98067.09;;;6.80;100.00
70930;BME280;58588;48.102;19.682;2022-11-23T12:00:57;98063.03;;;6.91;100.00
70930;BME280;58588;48.102;19.682;2022-11-23T12:04:05;98070.44;;;6.95;100.00
70930;BME280;58588;48.102;19.682;2022-11-23T12:07:13;98057.75;;;7.11;100.00
70930;BME280;58588;48.102;19.682;2022-11-23T12:10:25;98058.41;;;7.19;100.00
70930;BME280;58588;48.102;19.682;2022-11-23T12:13:30;98053.09;;;7.26;100.00
70930;BME280;58588;48.102;19.682;2022-11-23T12:16:40;98061.75;;;7.28;100.00
70930;BME280;58588;48.102;19.682;2022-11-23T12:19:53;98058.88;;;7.30;100.00
70930;BME280;58588;48.102;19.682;2022-11-23T12:23:08;98066.31;;;7.34;100.00
70930;BME280;58588;48.102;19.682;2022-11-23T12:26:21;98065.97;;;7.50;100.00
70930;BME280;58588;48.102;19.682;2022-11-23T12:29:47;98064.34;;;7.63;100.00
70930;BME280;58588;48.102;19.682;2022-11-23T12:33:12;98063.72;;;7.61;100.00
70930;BME280;58588;48.102;19.682;2022-11-23T12:36:32;98074.66;;;7.72;100.00
70930;BME280;58588;48.102;19.682;2022-11-23T12:39:54;98076.75;;;7.70;100.00
70930;BME280;58588;48.102;19.682;2022-11-23T12:43:06;98080.84;;;7.66;100.00
70930;BME280;58588;48.102;19.682;2022-11-23T12:46:14;98082.94;;;7.71;100.00
70930;BME280;58588;48.102;19.682;2022-11-23T12:49:27;98086.19;;;7.60;100.00
70930;BME280;58588;48.102;19.682;2022-11-23T12:52:45;98080.47;;;7.69;100.00
70930;BME280;58588;48.102;19.682;2022-11-23T12:55:59;98077.56;;;7.77;100.00
70930;BME280;58588;48.102;19.682;2022-11-23T12:59:07;98068.72;;;7.84;100.00
70930;BME280;58588;48.102;19.682;2022-11-23T13:02:25;98068.94;;;7.89;100.00
70930;BME280;58588;48.102;19.682;2022-11-23T13:06:14;98067.69;;;7.85;100.00
70930;BME280;58588;48.102;19.682;2022-11-23T13:09:38;98068.13;;;8.01;100.00
70930;BME280;58588;48.102;19.682;2022-11-23T13:13:06;98068.34;;;8.00;100.00
70930;BME280;58588;48.102;19.682;2022-11-23T13:16:33;98055.91;;;7.72;100.00
70930;BME280;58588;48.102;19.682;2022-11-23T13:19:57;98055.09;;;7.78;100.00
70930;BME280;58588;48.102;19.682;2022-11-23T13:23:03;98061.91;;;7.74;100.00
70930;BME280;58588;48.102;19.682;2022-11-23T13:26:13;98056.91;;;7.58;100.00
70930;BME280;58588;48.102;19.682;2022-11-23T13:29:46;98066.97;;;7.49;100.00
70930;BME280;58588;48.102;19.682;2022-11-23T13:36:57;98070.66;;;7.42;100.00
70930;BME280;58588;48.102;19.682;2022-11-23T13:40:02;98070.66;;;7.35;100.00
70930;BME280;58588;48.102;19.682;2022-11-23T13:43:12;98065.94;;;7.44;100.00
70930;BME280;58588;48.102;19.682;2022-11-23T13:46:22;98059.94;;;7.42;100.00
70930;BME280;58588;48.102;19.682;2022-11-23T13:49:31;98066.78;;;7.51;100.00
70930;BME280;58588;48.102;19.682;2022-11-23T13:52:35;98071.53;;;7.56;100.00
70930;BME280;58588;48.102;19.682;2022-11-23T13:55:38;98069.66;;;7.49;100.00
70930;BME280;58588;48.102;19.682;2022-11-23T13:58:49;98078.13;;;7.53;100.00
70930;BME280;58588;48.102;19.682;2022-11-23T14:02:22;98071.94;;;7.53;100.00
70930;BME280;58588;48.102;19.682;2022-11-23T14:05:54;98064.72;;;7.46;100.00
70930;BME280;58588;48.102;19.682;2022-11-23T14:09:02;98066.34;;;7.41;100.00
70930;BME280;58588;48.102;19.682;2022-11-23T14:12:16;98070.88;;;7.40;100.00
70930;BME280;58588;48.102;19.682;2022-11-23T14:15:21;98077.41;;;7.31;100.00
70930;BME280;58588;48.102;19.682;2022-11-23T14:18:49;98087.94;;;7.26;100.00
70930;BME280;58588;48.102;19.682;2022-11-23T14:22:03;98091.72;;;6.97;100.00
70930;BME280;58588;48.102;19.682;2022-11-23T14:25:23;98091.72;;;6.97;100.00
70930;BME280;58588;48.102;19.682;2022-11-23T14:28:42;98092.72;;;6.96;100.00
70930;BME280;58588;48.102;19.682;2022-11-23T14:31:58;98089.81;;;6.91;100.00
70930;BME280;58588;48.102;19.682;2022-11-23T14:35:18;98092.78;;;6.75;100.00
70930;BME280;58588;48.102;19.682;2022-11-23T14:42:02;98087.19;;;6.69;100.00
70930;BME280;58588;48.102;19.682;2022-11-23T14:45:16;98090.91;;;6.68;100.00
70930;BME280;58588;48.102;19.682;2022-11-23T14:48:21;98088.44;;;6.67;100.00
70930;BME280;58588;48.102;19.682;2022-11-23T14:51:24;98089.25;;;6.67;100.00
70930;BME280;58588;48.102;19.682;2022-11-23T14:54:27;98077.72;;;6.67;100.00
70930;BME280;58588;48.102;19.682;2022-11-23T14:57:36;98088.44;;;6.67;100.00
70930;BME280;58588;48.102;19.682;2022-11-23T15:00:41;98081.78;;;6.63;100.00
70930;BME280;58588;48.102;19.682;2022-11-23T15:03:54;98107.28;;;6.59;100.00
70930;BME280;58588;48.102;19.682;2022-11-23T15:07:00;98114.13;;;6.61;100.00
70930;BME280;58588;48.102;19.682;2022-11-23T15:10:07;98103.38;;;6.55;100.00
70930;BME280;58588;48.102;19.682;2022-11-23T15:13:21;98107.50;;;6.57;100.00
70930;BME280;58588;48.102;19.682;2022-11-23T15:16:24;98107.69;;;6.56;100.00
70930;BME280;58588;48.102;19.682;2022-11-23T15:19:28;98120.09;;;6.63;100.00
70930;BME280;58588;48.102;19.682;2022-11-23T15:22:31;98120.25;;;6.55;100.00
70930;BME280;58588;48.102;19.682;2022-11-23T15:25:34;98114.84;;;6.49;100.00
70930;BME280;58588;48.102;19.682;2022-11-23T15:28:37;98117.50;;;6.42;100.00
70930;BME280;58588;48.102;19.682;2022-11-23T15:31:39;98115.38;;;6.37;100.00
70930;BME280;58588;48.102;19.682;2022-11-23T15:34:41;98115.38;;;6.37;100.00
70930;BME280;58588;48.102;19.682;2022-11-23T15:37:45;98121.09;;;6.34;100.00
70930;BME280;58588;48.102;19.682;2022-11-23T15:40:48;98115.75;;;6.34;100.00
70930;BME280;58588;48.102;19.682;2022-11-23T15:43:53;98117.03;;;6.38;100.00
70930;BME280;58588;48.102;19.682;2022-11-23T15:47:03;98118.44;;;6.34;100.00
70930;BME280;58588;48.102;19.682;2022-11-23T15:50:08;98120.09;;;6.35;100.00
70930;BME280;58588;48.102;19.682;2022-11-23T15:53:10;98130.16;;;6.33;100.00
70930;BME280;58588;48.102;19.682;2022-11-23T15:56:20;98127.94;;;6.37;100.00
70930;BME280;58588;48.102;19.682;2022-11-23T15:59:38;98128.09;;;6.35;100.00
70930;BME280;58588;48.102;19.682;2022-11-23T16:02:41;98134.47;;;6.34;100.00
70930;BME280;58588;48.102;19.682;2022-11-23T16:05:43;98131.31;;;6.24;100.00
70930;BME280;58588;48.102;19.682;2022-11-23T16:08:46;98123.09;;;6.26;100.00
70930;BME280;58588;48.102;19.682;2022-11-23T16:11:48;98119.19;;;6.28;100.00
70930;BME280;58588;48.102;19.682;2022-11-23T16:14:53;98122.53;;;6.30;100.00
70930;BME280;58588;48.102;19.682;2022-11-23T16:17:55;98123.34;;;6.31;100.00
70930;BME280;58588;48.102;19.682;2022-11-23T16:20:59;98120.94;;;6.36;100.00